Campanya meteocatpedra

Dades de l'estació automàtica el Masroig

?
?
Resum diari 20:00 TU
Dades diàries de l'estació meteorològica
Temperatura mitjana 19.1 °C
Temperatura màxima 28.2 °C 12:56 TU
Temperatura mínima 9.9 °C 5:13 TU
Humitat relativa mitjana 55%
Precipitació acumulada 0.0 mm
Ratxa màxima del vent (2 m) 22.7 km/h - 146º 14:08 TU

El tram horari està expressat en Temps Universal (TU). Cal sumar una hora en horari d'hivern i dues en horari d'estiu per passar a l'hora oficial.

el Masroig

Metadades estació meteorol´gica
Municipi El Masroig
Comarca Priorat
Altitud 141 m
Data alta 20.06.2000
Estat actual Operativa
Dades de període
Període
TU
TM
°C
TX
°C
TN
°C
HRM
%
PPT
mm
VVM (2 m)
km/h
DVM (2 m)
graus
VVX (2 m)
km/h
00:00 - 00:30 13.2 14.0 12.8 82 0.0 3.6 114 5.8
00:30 - 01:00 13.0 13.2 12.8 82 0.0 4.3 128 7.6
01:00 - 01:30 12.6 13.0 12.3 83 0.0 2.5 117 5.0
01:30 - 02:00 12.1 12.2 12.0 85 0.0 2.9 113 4.3
02:00 - 02:30 11.3 11.9 11.0 88 0.0 2.2 106 4.3
02:30 - 03:00 10.9 11.3 10.8 89 0.0 1.8 125 4.0
03:00 - 03:30 10.9 11.2 10.6 89 0.0 3.2 124 5.0
03:30 - 04:00 10.9 11.1 10.7 89 0.0 4.3 124 6.8
04:00 - 04:30 10.8 11.0 10.5 88 0.0 3.6 128 7.2
04:30 - 05:00 10.5 10.7 10.3 89 0.0 0.7 125 4.0
05:00 - 05:30 10.1 10.4 9.9 91 0.0 1.8 117 4.0
05:30 - 06:00 10.6 11.3 10.0 90 0.0 2.2 90 5.0
06:00 - 06:30 11.4 12.6 10.8 87 0.0 2.2 138 4.3
06:30 - 07:00 13.9 15.0 12.7 76 0.0 1.8 143 4.3
07:00 - 07:30 15.5 16.2 15.1 71 0.0 2.2 267 5.4
07:30 - 08:00 16.1 16.9 15.5 71 0.0 4.0 296 7.2
08:00 - 08:30 17.4 18.2 16.9 65 0.0 4.3 284 8.3
08:30 - 09:00 19.3 20.2 18.3 58 0.0 2.5 252 6.8
09:00 - 09:30 20.5 21.4 20.0 56 0.0 3.2 272 7.9
09:30 - 10:00 22.1 22.8 21.5 47 0.0 4.3 295 9.0
10:00 - 10:30 23.4 24.3 22.6 44 0.0 5.0 300 11.5
10:30 - 11:00 24.4 25.1 23.9 40 0.0 5.4 287 12.2
11:00 - 11:30 25.8 26.5 25.1 34 0.0 7.2 118 18.4
11:30 - 12:00 26.2 26.5 25.9 31 0.0 7.9 127 19.4
12:00 - 12:30 26.8 27.2 26.4 28 0.0 7.2 129 17.6
12:30 - 13:00 27.3 28.2 26.7 26 0.0 6.8 146 16.9
13:00 - 13:30 27.4 27.9 26.8 27 0.0 10.1 125 19.4
13:30 - 14:00 27.0 27.3 26.6 26 0.0 11.2 142 22.0
14:00 - 14:30 26.7 27.0 26.2 25 0.0 11.2 151 22.7
14:30 - 15:00 26.4 26.9 26.1 24 0.0 9.7 163 20.9
15:00 - 15:30 26.1 26.6 25.9 23 0.0 9.7 167 20.2
15:30 - 16:00 25.9 26.3 25.7 23 0.0 9.0 157 18.4
16:00 - 16:30 25.4 25.8 25.1 25 0.0 9.4 157 18.7
16:30 - 17:00 25.0 25.1 24.9 27 0.0 6.5 152 13.0
17:00 - 17:30 24.3 24.9 23.7 30 0.0 7.9 152 16.2
17:30 - 18:00 23.2 23.6 22.7 32 0.0 8.6 143 15.1
18:00 - 18:30 22.3 22.7 21.5 32 0.0 6.5 130 11.2
18:30 - 19:00 20.7 21.5 20.2 38 0.0 5.4 112 7.9
19:00 - 19:30 19.4 20.2 18.5 41 0.0 5.0 112 10.4
19:30 - 20:00 18.2 19.3 17.7 45 0.0 3.2 281 7.9
20:00 - 20:30 17.2 18.0 16.1 50 0.0 2.5 25 5.4
20:30 - 21:00 (s/d) (s/d) (s/d) (s/d) (s/d) (s/d) (s/d) (s/d)

Les dades en taronja només han passat un control de qualitat automàtic. Resta pendent la seva validació definitiva.